Time;durP1;ratioP1;P1;durP2;ratioP2;P2;SDS_P1;SDS_P2;PMS_P1;PMS_P2;Temp;Humidity;BMP_temperature;BMP_pressure;BME280_temperature;BME280_humidity;BME280_pressure;Samples;Min_cycle;Max_cycle;Signal;HPM_P1;HPM_P2
2023/09/30 00:00:27;;;;;;;13.60;4.28;;;;;;;;;;5075788;28;20044;-80
2023/09/30 00:02:53;;;;;;;14.27;4.65;;;;;;;;;;5075908;28;20086;-80
2023/09/30 00:05:22;;;;;;;14.27;3.90;;;;;;;;;;5076625;28;20043;-80
2023/09/30 00:07:48;;;;;;;14.48;3.75;;;;;;;;;;5043139;28;20087;-80
2023/09/30 00:10:14;;;;;;;13.05;4.22;;;;;;;;;;5076557;28;20130;-79
2023/09/30 00:12:40;;;;;;;14.63;4.47;;;;;;;;;;5075781;28;20082;-79
2023/09/30 00:15:07;;;;;;;13.60;3.88;;;;;;;;;;5075401;28;20476;-79
2023/09/30 00:17:33;;;;;;;17.50;4.80;;;;;;;;;;5075724;28;20056;-80
2023/09/30 00:19:59;;;;;;;15.93;4.72;;;;;;;;;;5040499;28;20494;-79
2023/09/30 00:22:25;;;;;;;21.63;5.63;;;;;;;;;;5056438;28;20143;-80
2023/09/30 00:24:51;;;;;;;16.83;5.50;;;;;;;;;;5073299;28;20133;-80
2023/09/30 00:27:17;;;;;;;13.32;5.22;;;;;;;;;;5058035;28;20052;-80
2023/09/30 00:29:43;;;;;;;17.90;5.07;;;;;;;;;;5042803;28;20048;-80
2023/09/30 00:32:09;;;;;;;17.30;5.38;;;;;;;;;;5042833;28;20167;-80
2023/09/30 00:34:36;;;;;;;15.20;4.35;;;;;;;;;;5060143;28;20484;-79
2023/09/30 00:37:02;;;;;;;12.70;4.55;;;;;;;;;;5059527;28;20044;-80
2023/09/30 00:39:30;;;;;;;14.90;4.63;;;;;;;;;;5059316;28;20122;-80
2023/09/30 00:41:59;;;;;;;15.18;4.10;;;;;;;;;;5059280;28;20049;-79
2023/09/30 00:44:26;;;;;;;13.77;4.47;;;;;;;;;;5076893;28;20131;-79
2023/09/30 00:46:54;;;;;;;13.65;4.07;;;;;;;;;;5059975;28;20048;-79
2023/09/30 00:49:21;;;;;;;11.40;3.97;;;;;;;;;;5059130;28;20053;-80
2023/09/30 00:51:49;;;;;;;14.82;3.83;;;;;;;;;;5059024;28;20048;-79
2023/09/30 00:54:16;;;;;;;18.50;4.47;;;;;;;;;;5042666;28;20049;-80
2023/09/30 00:56:46;;;;;;;19.05;4.95;;;;;;;;;;5058962;28;20135;-79
2023/09/30 00:59:16;;;;;;;15.18;4.00;;;;;;;;;;5058993;28;20076;-79
2023/09/30 01:01:45;;;;;;;16.63;4.40;;;;;;;;;;5041836;28;20048;-79
2023/09/30 01:04:12;;;;;;;14.07;4.25;;;;;;;;;;5058906;28;20048;-79
2023/09/30 01:06:39;;;;;;;14.05;3.95;;;;;;;;;;5059606;28;20083;-80
2023/09/30 01:09:05;;;;;;;10.15;3.75;;;;;;;;;;5076434;28;20131;-80
2023/09/30 01:11:31;;;;;;;13.52;4.20;;;;;;;;;;5058633;28;20051;-79
2023/09/30 01:13:57;;;;;;;17.25;4.68;;;;;;;;;;5058566;28;20055;-80
2023/09/30 01:16:24;;;;;;;17.35;4.88;;;;;;;;;;5076154;28;20047;-79
2023/09/30 01:18:50;;;;;;;15.43;4.55;;;;;;;;;;5058517;28;20519;-79
2023/09/30 01:21:18;;;;;;;15.25;4.38;;;;;;;;;;5053658;28;20067;-80
2023/09/30 01:23:46;;;;;;;18.55;4.40;;;;;;;;;;5096412;28;20056;-80
2023/09/30 01:26:13;;;;;;;15.90;4.88;;;;;;;;;;5078426;28;20130;-79
2023/09/30 01:28:39;;;;;;;16.67;5.45;;;;;;;;;;5061753;28;20056;-80
2023/09/30 01:31:06;;;;;;;14.73;4.30;;;;;;;;;;5078895;28;20044;-80
2023/09/30 01:33:32;;;;;;;17.45;5.00;;;;;;;;;;5078287;28;20040;-80
2023/09/30 01:35:59;;;;;;;15.45;4.97;;;;;;;;;;5078071;28;20036;-80
2023/09/30 01:38:26;;;;;;;16.38;5.03;;;;;;;;;;5060839;28;20479;-80
2023/09/30 01:40:54;;;;;;;15.63;5.05;;;;;;;;;;5078174;28;20048;-80
2023/09/30 01:43:20;;;;;;;13.38;4.68;;;;;;;;;;5078132;28;20480;-80
2023/09/30 01:45:46;;;;;;;15.68;5.07;;;;;;;;;;5078325;28;20048;-80
2023/09/30 01:48:12;;;;;;;17.10;4.82;;;;;;;;;;5061338;28;20048;-80
2023/09/30 01:50:39;;;;;;;19.75;5.35;;;;;;;;;;5061054;28;20051;-80
2023/09/30 01:53:09;;;;;;;16.00;4.45;;;;;;;;;;5077978;28;20048;-80
2023/09/30 01:55:35;;;;;;;13.63;4.82;;;;;;;;;;5077694;28;20131;-80
2023/09/30 01:58:02;;;;;;;15.73;5.10;;;;;;;;;;5077596;28;20423;-80
2023/09/30 02:00:28;;;;;;;18.15;5.47;;;;;;;;;;5095514;28;20059;-80
2023/09/30 02:02:55;;;;;;;15.98;5.03;;;;;;;;;;5077735;28;20131;-80
2023/09/30 02:05:22;;;;;;;12.40;4.80;;;;;;;;;;5060957;28;20117;-80
2023/09/30 02:07:49;;;;;;;13.15;4.65;;;;;;;;;;5077742;28;20480;-79
2023/09/30 02:10:15;;;;;;;14.00;4.72;;;;;;;;;;5077644;28;20046;-79
2023/09/30 02:12:41;;;;;;;19.05;5.28;;;;;;;;;;5077381;28;20048;-79
2023/09/30 02:15:07;;;;;;;16.08;4.60;;;;;;;;;;5060793;28;20491;-80
2023/09/30 02:17:34;;;;;;;16.20;5.28;;;;;;;;;;5077518;28;20057;-80
2023/09/30 02:20:01;;;;;;;12.82;5.47;;;;;;;;;;5075088;28;20087;-80
2023/09/30 02:22:28;;;;;;;16.98;5.63;;;;;;;;;;5041463;28;20063;-79
2023/09/30 02:24:54;;;;;;;16.67;6.18;;;;;;;;;;5057285;28;20056;-80
2023/09/30 02:27:20;;;;;;;16.45;5.38;;;;;;;;;;5040469;28;20044;-79
2023/09/30 02:29:47;;;;;;;17.15;5.72;;;;;;;;;;5057106;28;20084;-79
2023/09/30 02:32:14;;;;;;;21.45;6.25;;;;;;;;;;5057098;28;20052;-79
2023/09/30 02:34:40;;;;;;;18.20;6.35;;;;;;;;;;5057086;28;20056;-79
2023/09/30 02:37:06;;;;;;;16.83;6.10;;;;;;;;;;5040436;28;20087;-79
2023/09/30 02:39:32;;;;;;;15.30;6.28;;;;;;;;;;5040170;28;20045;-79
2023/09/30 02:41:58;;;;;;;15.02;5.90;;;;;;;;;;5056993;28;20488;-79
2023/09/30 02:44:24;;;;;;;14.85;5.78;;;;;;;;;;5040169;28;20599;-79
2023/09/30 02:46:51;;;;;;;14.32;5.80;;;;;;;;;;5056883;28;20060;-79
2023/09/30 02:49:17;;;;;;;13.23;5.15;;;;;;;;;;5056718;28;20058;-80
2023/09/30 02:51:44;;;;;;;14.57;5.80;;;;;;;;;;5040124;28;20097;-79
2023/09/30 02:54:15;;;;;;;16.67;5.78;;;;;;;;;;5057012;28;20055;-79
2023/09/30 02:56:41;;;;;;;19.10;6.40;;;;;;;;;;5057258;28;20431;-79
2023/09/30 02:59:07;;;;;;;17.15;5.93;;;;;;;;;;5056614;28;20048;-80
2023/09/30 03:01:34;;;;;;;14.93;5.30;;;;;;;;;;5056561;28;20044;-79
2023/09/30 03:04:00;;;;;;;18.02;5.47;;;;;;;;;;5056531;28;20430;-79
2023/09/30 03:06:26;;;;;;;14.57;5.07;;;;;;;;;;5056518;28;20048;-79
2023/09/30 03:08:52;;;;;;;13.50;5.25;;;;;;;;;;5074035;28;20084;-80
2023/09/30 03:11:19;;;;;;;17.08;6.10;;;;;;;;;;5056779;28;20124;-79
2023/09/30 03:13:46;;;;;;;17.17;5.63;;;;;;;;;;5056422;28;20483;-78
2023/09/30 03:16:12;;;;;;;17.05;5.78;;;;;;;;;;5056106;28;20122;-79
2023/09/30 03:18:38;;;;;;;16.77;5.97;;;;;;;;;;5039414;28;20043;-78
2023/09/30 03:21:13;;;;;;;13.25;5.70;;;;;;;;;;5066887;28;20075;-79
2023/09/30 03:23:40;;;;;;;18.23;6.15;;;;;;;;;;5076331;28;20048;-79
2023/09/30 03:26:10;;;;;;;17.50;5.97;;;;;;;;;;5075890;28;20040;-78
2023/09/30 03:28:39;;;;;;;12.43;6.20;;;;;;;;;;5076197;28;20040;-79
2023/09/30 03:31:06;;;;;;;18.52;5.93;;;;;;;;;;5076091;28;20356;-79
2023/09/30 03:33:35;;;;;;;14.70;5.90;;;;;;;;;;5076104;28;20391;-79
2023/09/30 03:36:03;;;;;;;16.20;5.55;;;;;;;;;;5076115;28;20040;-79
2023/09/30 03:38:31;;;;;;;12.32;5.50;;;;;;;;;;5076341;28;20055;-80
2023/09/30 03:40:58;;;;;;;13.85;5.80;;;;;;;;;;5076762;28;20044;-79
2023/09/30 03:43:25;;;;;;;15.73;6.13;;;;;;;;;;5075785;28;20483;-79
2023/09/30 03:45:53;;;;;;;15.45;4.85;;;;;;;;;;5075968;28;20079;-80
2023/09/30 03:48:19;;;;;;;17.20;6.10;;;;;;;;;;5059602;28;20051;-79
2023/09/30 03:50:45;;;;;;;16.80;5.85;;;;;;;;;;5059339;28;20079;-79
2023/09/30 03:53:11;;;;;;;15.30;5.68;;;;;;;;;;5059256;28;20094;-79
2023/09/30 03:55:38;;;;;;;13.07;6.00;;;;;;;;;;5058938;28;20047;-79
2023/09/30 03:58:04;;;;;;;14.45;5.63;;;;;;;;;;5075683;28;20052;-79
2023/09/30 04:00:30;;;;;;;15.45;5.85;;;;;;;;;;5059216;28;20047;-79
2023/09/30 04:02:59;;;;;;;18.58;5.90;;;;;;;;;;5082935;28;20043;-80
2023/09/30 04:05:29;;;;;;;16.88;6.13;;;;;;;;;;5082467;28;20040;-79
2023/09/30 04:07:59;;;;;;;14.95;6.32;;;;;;;;;;5082718;28;20059;-79
2023/09/30 04:10:25;;;;;;;14.38;5.90;;;;;;;;;;5066616;28;20048;-79
2023/09/30 04:12:52;;;;;;;13.75;6.22;;;;;;;;;;5082710;28;20434;-80
2023/09/30 04:15:18;;;;;;;17.38;6.50;;;;;;;;;;5065513;28;20044;-80
2023/09/30 04:17:44;;;;;;;15.00;6.15;;;;;;;;;;5066461;28;20043;-80
2023/09/30 04:20:15;;;;;;;14.48;5.70;;;;;;;;;;5082398;28;20553;-79
2023/09/30 04:22:48;;;;;;;13.68;6.05;;;;;;;;;;5083140;28;20078;-80
2023/09/30 04:25:16;;;;;;;19.40;6.63;;;;;;;;;;5100555;28;20392;-80
2023/09/30 04:27:42;;;;;;;14.93;6.30;;;;;;;;;;5066424;28;20048;-80
2023/09/30 04:30:10;;;;;;;12.95;6.35;;;;;;;;;;5065470;28;20059;-80
2023/09/30 04:32:36;;;;;;;12.40;6.20;;;;;;;;;;5082182;28;20048;-80
2023/09/30 04:35:04;;;;;;;12.98;6.22;;;;;;;;;;5065054;28;20043;-80
2023/09/30 04:37:30;;;;;;;17.23;8.18;;;;;;;;;;5065415;28;20131;-79
2023/09/30 04:39:57;;;;;;;14.10;7.32;;;;;;;;;;5082692;28;20521;-80
2023/09/30 04:42:25;;;;;;;14.20;6.32;;;;;;;;;;5065458;28;20511;-80
2023/09/30 04:44:51;;;;;;;19.02;7.68;;;;;;;;;;5082011;28;20048;-80
2023/09/30 04:47:18;;;;;;;12.93;7.28;;;;;;;;;;5065568;28;20096;-79
2023/09/30 04:49:45;;;;;;;14.38;8.18;;;;;;;;;;5100048;28;20056;-80
2023/09/30 04:52:11;;;;;;;13.15;8.00;;;;;;;;;;5081950;28;20071;-80
2023/09/30 04:54:37;;;;;;;16.38;9.05;;;;;;;;;;5081960;28;20040;-79
2023/09/30 04:57:03;;;;;;;19.50;9.00;;;;;;;;;;5082706;28;20051;-80
2023/09/30 04:59:29;;;;;;;15.80;8.55;;;;;;;;;;5081760;28;20408;-79
2023/09/30 05:01:56;;;;;;;15.57;8.65;;;;;;;;;;5065165;28;20073;-80
2023/09/30 05:04:25;;;;;;;17.25;8.70;;;;;;;;;;5048868;28;20103;-79
2023/09/30 05:06:51;;;;;;;15.45;9.10;;;;;;;;;;5065733;28;20153;-80
2023/09/30 05:09:18;;;;;;;14.52;8.77;;;;;;;;;;5081893;28;20043;-79
2023/09/30 05:11:45;;;;;;;16.67;8.52;;;;;;;;;;5081527;28;20093;-79
2023/09/30 05:14:11;;;;;;;18.13;9.07;;;;;;;;;;5061526;28;20097;-79
2023/09/30 05:16:37;;;;;;;14.85;8.80;;;;;;;;;;5079083;28;20063;-80
2023/09/30 05:19:04;;;;;;;14.40;8.73;;;;;;;;;;5062095;28;20101;-79
2023/09/30 05:21:30;;;;;;;16.52;8.80;;;;;;;;;;5078469;28;20467;-79
2023/09/30 05:23:56;;;;;;;16.90;9.85;;;;;;;;;;5061859;28;20056;-79
2023/09/30 05:26:22;;;;;;;13.82;9.20;;;;;;;;;;5079289;28;20052;-80
2023/09/30 05:28:49;;;;;;;16.88;8.52;;;;;;;;;;5061801;28;20109;-80
2023/09/30 05:31:15;;;;;;;17.60;9.25;;;;;;;;;;5078645;28;20070;-79
2023/09/30 05:33:41;;;;;;;14.02;9.63;;;;;;;;;;5079166;28;20104;-79
2023/09/30 05:36:07;;;;;;;15.27;9.32;;;;;;;;;;5078137;28;20055;-80
2023/09/30 05:38:33;;;;;;;17.95;9.13;;;;;;;;;;5078277;28;20098;-79
2023/09/30 05:40:59;;;;;;;16.10;9.18;;;;;;;;;;5078246;28;20044;-79
2023/09/30 05:43:27;;;;;;;13.18;8.02;;;;;;;;;;5078208;28;20044;-79
2023/09/30 05:45:54;;;;;;;15.73;9.27;;;;;;;;;;5061318;28;20178;-79
2023/09/30 05:48:21;;;;;;;22.65;9.98;;;;;;;;;;5078436;28;20060;-79
2023/09/30 05:50:47;;;;;;;19.08;9.52;;;;;;;;;;5095974;28;20062;-79
2023/09/30 05:53:14;;;;;;;18.17;10.13;;;;;;;;;;5061729;28;20093;-79
2023/09/30 05:55:45;;;;;;;15.80;9.57;;;;;;;;;;5078646;28;20131;-80
2023/09/30 05:58:13;;;;;;;14.23;9.35;;;;;;;;;;5078253;28;20455;-79
2023/09/30 06:00:40;;;;;;;16.55;9.82;;;;;;;;;;5078060;28;20396;-79
2023/09/30 06:03:07;;;;;;;18.08;10.40;;;;;;;;;;5077861;28;20051;-80
2023/09/30 06:05:33;;;;;;;15.80;9.57;;;;;;;;;;5077769;28;20119;-80
2023/09/30 06:08:02;;;;;;;17.48;11.30;;;;;;;;;;5077757;28;20131;-80
2023/09/30 06:10:29;;;;;;;17.73;10.25;;;;;;;;;;5078568;28;20040;-79
2023/09/30 06:12:56;;;;;;;18.35;10.57;;;;;;;;;;5077644;28;20040;-80
2023/09/30 06:15:25;;;;;;;16.80;10.52;;;;;;;;;;5077483;28;20097;-80
2023/09/30 06:17:52;;;;;;;18.60;11.02;;;;;;;;;;5061477;28;20389;-80
2023/09/30 06:20:18;;;;;;;18.67;11.02;;;;;;;;;;5074677;28;20056;-80
2023/09/30 06:22:45;;;;;;;18.42;9.80;;;;;;;;;;5041227;28;20544;-80
2023/09/30 06:25:12;;;;;;;21.70;11.43;;;;;;;;;;5074968;28;20473;-80
2023/09/30 06:27:38;;;;;;;20.63;11.30;;;;;;;;;;5040783;28;20052;-80
2023/09/30 06:30:05;;;;;;;23.00;12.27;;;;;;;;;;5057220;28;20041;-79
2023/09/30 06:32:31;;;;;;;22.02;12.43;;;;;;;;;;5040685;28;20052;-79
2023/09/30 06:34:57;;;;;;;21.73;12.00;;;;;;;;;;5057081;28;20068;-79
2023/09/30 06:37:23;;;;;;;22.55;12.70;;;;;;;;;;5074658;28;20044;-79
2023/09/30 06:39:49;;;;;;;17.65;11.82;;;;;;;;;;5040457;28;20110;-79
2023/09/30 06:42:16;;;;;;;19.60;11.95;;;;;;;;;;5056968;28;20135;-79
2023/09/30 06:44:43;;;;;;;17.13;11.40;;;;;;;;;;5057315;28;20092;-79
2023/09/30 06:47:12;;;;;;;17.10;11.88;;;;;;;;;;5056928;28;20044;-79
2023/09/30 06:49:39;;;;;;;24.30;13.05;;;;;;;;;;5040320;28;20106;-79
2023/09/30 06:52:05;;;;;;;15.77;11.70;;;;;;;;;;5056705;28;20477;-79
2023/09/30 06:54:31;;;;;;;18.25;12.30;;;;;;;;;;5039920;28;20052;-79
2023/09/30 06:56:58;;;;;;;18.42;12.07;;;;;;;;;;5039975;28;20128;-79
2023/09/30 06:59:25;;;;;;;17.60;11.35;;;;;;;;;;5040319;28;20055;-79
2023/09/30 07:01:51;;;;;;;18.25;11.98;;;;;;;;;;5057187;28;20049;-79
2023/09/30 07:04:17;;;;;;;17.08;11.52;;;;;;;;;;5056588;28;20048;-79
2023/09/30 07:06:43;;;;;;;20.60;12.15;;;;;;;;;;5074227;28;20604;-79
2023/09/30 07:09:11;;;;;;;20.83;13.70;;;;;;;;;;5056524;28;20052;-79
2023/09/30 07:11:38;;;;;;;19.38;12.00;;;;;;;;;;5057393;28;20051;-79
2023/09/30 07:14:04;;;;;;;20.30;12.35;;;;;;;;;;5057272;28;20054;-79
2023/09/30 07:16:30;;;;;;;21.35;11.75;;;;;;;;;;5039723;28;20102;-79
2023/09/30 07:18:57;;;;;;;22.33;13.60;;;;;;;;;;5074043;28;20053;-79
2023/09/30 07:21:23;;;;;;;17.63;12.43;;;;;;;;;;5067151;28;20099;-79
2023/09/30 07:23:49;;;;;;;20.48;13.13;;;;;;;;;;5077090;28;20101;-79
2023/09/30 07:26:15;;;;;;;21.55;13.13;;;;;;;;;;5059584;28;20491;-79
2023/09/30 07:28:41;;;;;;;17.08;12.35;;;;;;;;;;5076283;28;20043;-79
2023/09/30 07:31:07;;;;;;;21.70;13.13;;;;;;;;;;5076442;28;20062;-79
2023/09/30 07:33:33;;;;;;;20.77;13.52;;;;;;;;;;5059520;28;20047;-78
2023/09/30 07:35:59;;;;;;;20.80;13.63;;;;;;;;;;5075036;28;20047;-79
2023/09/30 07:38:25;;;;;;;20.92;13.70;;;;;;;;;;5076363;28;20079;-79
2023/09/30 07:40:52;;;;;;;18.95;13.32;;;;;;;;;;5076090;28;20051;-79
2023/09/30 07:43:20;;;;;;;18.23;12.32;;;;;;;;;;5076369;28;20093;-79
2023/09/30 07:45:46;;;;;;;22.45;14.55;;;;;;;;;;5059345;28;20127;-79
2023/09/30 07:48:13;;;;;;;21.88;14.43;;;;;;;;;;5076842;28;20130;-79
2023/09/30 07:50:40;;;;;;;19.20;14.35;;;;;;;;;;5076292;28;20388;-79
2023/09/30 07:53:07;;;;;;;20.45;13.88;;;;;;;;;;5076743;28;20079;-79
2023/09/30 07:55:33;;;;;;;20.77;14.15;;;;;;;;;;5076100;28;20516;-79
2023/09/30 07:58:00;;;;;;;17.85;13.75;;;;;;;;;;5059290;28;20074;-80
2023/09/30 08:00:26;;;;;;;20.52;14.32;;;;;;;;;;5076152;28;20438;-80
2023/09/30 08:02:52;;;;;;;19.63;14.25;;;;;;;;;;5059214;28;20060;-79
2023/09/30 08:05:18;;;;;;;20.92;14.88;;;;;;;;;;5075801;28;20055;-79
2023/09/30 08:07:46;;;;;;;22.42;13.48;;;;;;;;;;5076676;28;20048;-80
2023/09/30 08:10:13;;;;;;;18.35;13.98;;;;;;;;;;5076669;28;20048;-80
2023/09/30 08:12:40;;;;;;;25.33;14.77;;;;;;;;;;5059134;28;20121;-80
2023/09/30 08:15:07;;;;;;;16.88;13.25;;;;;;;;;;5075705;28;20040;-80
2023/09/30 08:17:33;;;;;;;18.88;14.25;;;;;;;;;;5075753;28;20040;-80
2023/09/30 08:20:00;;;;;;;18.52;13.95;;;;;;;;;;5076075;28;20393;-80
2023/09/30 08:22:27;;;;;;;21.73;14.05;;;;;;;;;;5075621;28;20055;-80
2023/09/30 08:24:54;;;;;;;21.13;14.70;;;;;;;;;;5075775;28;20088;-80
2023/09/30 08:27:20;;;;;;;20.27;14.82;;;;;;;;;;5075853;28;20048;-80
2023/09/30 08:29:46;;;;;;;25.67;14.00;;;;;;;;;;5075674;28;20040;-80
2023/09/30 08:32:12;;;;;;;18.58;13.32;;;;;;;;;;5076395;28;20052;-81
2023/09/30 08:34:39;;;;;;;18.25;14.55;;;;;;;;;;5076415;28;20341;-80
2023/09/30 08:37:05;;;;;;;20.20;13.50;;;;;;;;;;5075907;28;20086;-80
2023/09/30 08:39:31;;;;;;;21.50;15.38;;;;;;;;;;5075598;28;20116;-80
2023/09/30 08:41:57;;;;;;;19.73;14.57;;;;;;;;;;5075783;28;20052;-80
2023/09/30 08:44:24;;;;;;;21.10;14.88;;;;;;;;;;5059020;28;20083;-80
2023/09/30 08:46:52;;;;;;;19.52;13.85;;;;;;;;;;5075489;28;20134;-80
2023/09/30 08:49:18;;;;;;;22.35;15.27;;;;;;;;;;5062562;28;20055;-80
2023/09/30 08:51:45;;;;;;;17.95;14.43;;;;;;;;;;5079279;28;20445;-80
2023/09/30 08:54:11;;;;;;;19.88;14.23;;;;;;;;;;5062593;28;20048;-79
2023/09/30 08:56:41;;;;;;;19.02;14.55;;;;;;;;;;5078867;28;20044;-80
2023/09/30 08:59:07;;;;;;;18.25;14.02;;;;;;;;;;5079328;28;20040;-80
2023/09/30 09:01:34;;;;;;;20.92;13.45;;;;;;;;;;5078973;28;20131;-81
2023/09/30 09:04:01;;;;;;;15.55;13.13;;;;;;;;;;5079187;28;20113;-80
2023/09/30 09:06:27;;;;;;;18.88;13.07;;;;;;;;;;5079019;28;20055;-80
2023/09/30 09:08:53;;;;;;;18.88;13.00;;;;;;;;;;5078441;28;20544;-80
2023/09/30 09:11:19;;;;;;;17.60;12.38;;;;;;;;;;5062221;28;20479;-80
2023/09/30 09:14:00;;;;;;;17.35;12.45;;;;;;;;;;5062385;28;20502;-80
2023/09/30 09:16:26;;;;;;;17.40;12.73;;;;;;;;;;5062204;28;20040;-80
2023/09/30 09:18:53;;;;;;;18.65;13.68;;;;;;;;;;5078744;28;20495;-80
2023/09/30 09:21:22;;;;;;;15.75;11.55;;;;;;;;;;5078473;28;20059;-80
2023/09/30 09:23:49;;;;;;;14.32;12.13;;;;;;;;;;5097042;28;20052;-80
2023/09/30 09:26:26;;;;;;;16.10;12.73;;;;;;;;;;5078636;28;20092;-80
2023/09/30 09:28:59;;;;;;;17.98;11.95;;;;;;;;;;5079076;28;20490;-80
2023/09/30 09:31:29;;;;;;;15.52;11.63;;;;;;;;;;5061760;28;20052;-80
2023/09/30 09:33:56;;;;;;;16.08;11.32;;;;;;;;;;5045415;28;20100;-80
2023/09/30 09:36:38;;;;;;;18.55;12.45;;;;;;;;;;5061783;28;20395;-80
2023/09/30 09:39:04;;;;;;;16.05;11.68;;;;;;;;;;5078378;28;20498;-81
2023/09/30 09:41:30;;;;;;;17.73;11.80;;;;;;;;;;5078369;28;20496;-80
2023/09/30 09:43:58;;;;;;;15.02;11.00;;;;;;;;;;5078266;28;20048;-81
2023/09/30 09:46:25;;;;;;;14.90;10.15;;;;;;;;;;5061558;28;20051;-81
2023/09/30 09:48:53;;;;;;;15.00;10.57;;;;;;;;;;5061855;28;20065;-80
2023/09/30 09:51:20;;;;;;;17.90;10.60;;;;;;;;;;5096014;28;20476;-81
2023/09/30 09:53:48;;;;;;;14.68;9.98;;;;;;;;;;5061466;28;20044;-81
2023/09/30 09:56:14;;;;;;;14.55;10.45;;;;;;;;;;5077874;28;20044;-81
2023/09/30 09:58:42;;;;;;;12.57;8.38;;;;;;;;;;5077601;28;20066;-81
2023/09/30 10:01:09;;;;;;;13.57;7.88;;;;;;;;;;5078476;28;20044;-81
2023/09/30 10:03:36;;;;;;;14.82;8.18;;;;;;;;;;5095717;28;20048;-81
2023/09/30 10:06:02;;;;;;;14.38;8.43;;;;;;;;;;5077860;28;20127;-81
2023/09/30 10:08:31;;;;;;;12.93;7.97;;;;;;;;;;5077813;28;20044;-81
2023/09/30 10:10:59;;;;;;;12.98;8.55;;;;;;;;;;5077699;28;20044;-81
2023/09/30 10:13:45;;;;;;;11.13;8.52;;;;;;;;;;5077570;28;20083;-81
2023/09/30 10:16:31;;;;;;;13.38;6.78;;;;;;;;;;5077495;28;20202;-81
2023/09/30 10:19:14;;;;;;;13.10;7.57;;;;;;;;;;5078276;28;20052;-80
2023/09/30 10:21:41;;;;;;;13.35;7.85;;;;;;;;;;5060548;28;20055;-81
2023/09/30 10:24:39;;;;;;;11.63;6.45;;;;;;;;;;5078242;28;20130;-81
2023/09/30 10:27:24;;;;;;;11.38;7.50;;;;;;;;;;5039947;28;20060;-81
2023/09/30 10:30:00;;;;;;;11.95;7.88;;;;;;;;;;5078119;28;20080;-81
2023/09/30 10:32:45;;;;;;;12.45;6.60;;;;;;;;;;5077311;28;20131;-81
2023/09/30 10:35:11;;;;;;;15.43;7.28;;;;;;;;;;5060530;28;20051;-81
2023/09/30 10:37:38;;;;;;;10.43;6.53;;;;;;;;;;5077098;28;20043;-81
2023/09/30 10:40:07;;;;;;;13.88;7.78;;;;;;;;;;5061168;28;20433;-80
2023/09/30 10:42:50;;;;;;;13.10;7.45;;;;;;;;;;5061067;28;20040;-78
2023/09/30 10:45:35;;;;;;;12.35;6.80;;;;;;;;;;5077270;28;20059;-78
2023/09/30 10:48:21;;;;;;;11.77;5.68;;;;;;;;;;5077806;28;20070;-78
2023/09/30 10:50:51;;;;;;;12.77;6.25;;;;;;;;;;5076556;28;20047;-79
2023/09/30 10:53:18;;;;;;;12.55;5.10;;;;;;;;;;5076876;28;20055;-81
2023/09/30 10:55:47;;;;;;;13.27;4.95;;;;;;;;;;5076773;28;20036;-81
2023/09/30 10:58:14;;;;;;;7.65;3.78;;;;;;;;;;5077199;28;20156;-80
2023/09/30 11:00:43;;;;;;;8.50;3.38;;;;;;;;;;5060199;28;20059;-81
2023/09/30 11:03:12;;;;;;;10.75;3.35;;;;;;;;;;5076695;28;20051;-80
2023/09/30 11:05:38;;;;;;;8.25;2.88;;;;;;;;;;5076728;28;20434;-78
2023/09/30 11:08:10;;;;;;;9.15;2.92;;;;;;;;;;5076634;28;20051;-80
2023/09/30 11:10:36;;;;;;;10.23;2.88;;;;;;;;;;5076329;28;20396;-80
2023/09/30 11:13:03;;;;;;;6.38;2.42;;;;;;;;;;5060393;28;20059;-78
2023/09/30 11:15:29;;;;;;;6.57;2.25;;;;;;;;;;5059969;28;20044;-79
2023/09/30 11:18:13;;;;;;;6.28;1.95;;;;;;;;;;5059900;28;20117;-80
2023/09/30 11:20:39;;;;;;;9.50;2.22;;;;;;;;;;5073413;28;20488;-78
2023/09/30 11:23:06;;;;;;;6.70;2.63;;;;;;;;;;5056704;28;20393;-78
2023/09/30 11:25:35;;;;;;;6.85;2.78;;;;;;;;;;5056246;28;20054;-78
2023/09/30 11:28:22;;;;;;;8.93;1.80;;;;;;;;;;5056315;28;20135;-78
2023/09/30 11:30:54;;;;;;;4.25;1.40;;;;;;;;;;5056186;28;20091;-79
2023/09/30 11:33:22;;;;;;;6.53;1.40;;;;;;;;;;5073932;28;20084;-78
2023/09/30 11:35:58;;;;;;;7.93;1.42;;;;;;;;;;5040046;28;20044;-78
2023/09/30 11:38:25;;;;;;;5.60;1.17;;;;;;;;;;5056432;28;20132;-79
2023/09/30 11:41:02;;;;;;;4.22;1.10;;;;;;;;;;5055942;28;20105;-79
2023/09/30 11:43:29;;;;;;;6.65;1.33;;;;;;;;;;5040348;28;20055;-79
2023/09/30 11:46:11;;;;;;;5.32;1.35;;;;;;;;;;5056052;28;20048;-79
2023/09/30 11:48:55;;;;;;;7.40;1.52;;;;;;;;;;5056085;28;20548;-79
2023/09/30 11:51:24;;;;;;;;;;;;;;;;;;5056328;28;20476;-79
2023/09/30 11:53:50;;;;;;;7.25;1.95;;;;;;;;;;5055577;28;19979;-79
2023/09/30 11:56:16;;;;;;;5.18;1.30;;;;;;;;;;5055651;28;20052;-79
2023/09/30 11:58:42;;;;;;;5.93;1.27;;;;;;;;;;5055916;28;20088;-79
2023/09/30 12:01:11;;;;;;;9.60;1.17;;;;;;;;;;5055525;28;20055;-79
2023/09/30 12:03:39;;;;;;;5.75;1.10;;;;;;;;;;5038941;28;20128;-79
2023/09/30 12:06:06;;;;;;;7.95;1.10;;;;;;;;;;5055528;28;20568;-79
2023/09/30 12:08:32;;;;;;;5.05;0.93;;;;;;;;;;5056104;28;20040;-79
2023/09/30 12:10:59;;;;;;;7.15;0.90;;;;;;;;;;5055441;28;20045;-79
2023/09/30 12:13:26;;;;;;;4.93;0.73;;;;;;;;;;5073361;28;20505;-80
2023/09/30 12:15:52;;;;;;;4.75;1.15;;;;;;;;;;5073417;28;20107;-79
2023/09/30 12:18:23;;;;;;;5.65;0.80;;;;;;;;;;5039121;28;20041;-79
2023/09/30 12:20:53;;;;;;;2.80;0.85;;;;;;;;;;5028543;28;20056;-79
2023/09/30 12:23:21;;;;;;;4.07;0.80;;;;;;;;;;5078425;28;20392;-79
2023/09/30 12:25:47;;;;;;;4.30;0.73;;;;;;;;;;5063090;28;20047;-79
2023/09/30 12:28:15;;;;;;;6.35;1.00;;;;;;;;;;5079701;28;20044;-79
2023/09/30 12:30:43;;;;;;;6.40;0.95;;;;;;;;;;5079005;28;20047;-79
2023/09/30 12:33:10;;;;;;;5.75;1.05;;;;;;;;;;5063832;28;20051;-79
2023/09/30 12:35:36;;;;;;;6.45;1.27;;;;;;;;;;5062482;28;20051;-79
2023/09/30 12:38:02;;;;;;;5.53;1.15;;;;;;;;;;5062695;28;20052;-79
2023/09/30 12:40:29;;;;;;;5.63;0.95;;;;;;;;;;5079566;28;20075;-79
2023/09/30 12:42:55;;;;;;;6.55;0.93;;;;;;;;;;5063517;28;20040;-79
2023/09/30 12:45:21;;;;;;;4.95;0.95;;;;;;;;;;5080267;28;20056;-79
2023/09/30 12:47:48;;;;;;;5.22;0.75;;;;;;;;;;5079088;28;20479;-79
2023/09/30 12:50:14;;;;;;;6.15;0.77;;;;;;;;;;5079277;28;20048;-79
2023/09/30 12:52:40;;;;;;;5.43;0.82;;;;;;;;;;5079044;28;20139;-79
2023/09/30 12:55:06;;;;;;;6.13;0.80;;;;;;;;;;5062519;28;20040;-79
2023/09/30 12:57:32;;;;;;;7.55;1.30;;;;;;;;;;5062867;28;20040;-79
2023/09/30 12:59:59;;;;;;;5.47;0.77;;;;;;;;;;5078601;28;20082;-79
2023/09/30 13:02:25;;;;;;;6.65;0.85;;;;;;;;;;5062439;28;20055;-79
2023/09/30 13:04:51;;;;;;;5.30;0.70;;;;;;;;;;5062352;28;20044;-79
2023/09/30 13:07:17;;;;;;;6.07;0.90;;;;;;;;;;5062693;28;20048;-79
2023/09/30 13:09:43;;;;;;;5.70;0.90;;;;;;;;;;5062292;28;20048;-79
2023/09/30 13:12:09;;;;;;;6.38;0.90;;;;;;;;;;5078918;28;20036;-79
2023/09/30 13:14:35;;;;;;;4.80;1.08;;;;;;;;;;5096778;28;20100;-79
2023/09/30 13:17:03;;;;;;;5.80;0.88;;;;;;;;;;5078498;28;20495;-79
2023/09/30 13:19:29;;;;;;;3.95;0.90;;;;;;;;;;5062085;28;20180;-79
2023/09/30 13:21:56;;;;;;;4.43;0.90;;;;;;;;;;5085045;28;20056;-79
2023/09/30 13:24:22;;;;;;;4.10;0.70;;;;;;;;;;5059455;28;20052;-79
2023/09/30 13:26:48;;;;;;;6.68;0.85;;;;;;;;;;5042148;28;20519;-79
2023/09/30 13:29:16;;;;;;;4.50;0.80;;;;;;;;;;5058524;28;20047;-80
2023/09/30 13:31:43;;;;;;;3.15;0.80;;;;;;;;;;5058415;28;20045;-80
2023/09/30 13:34:09;;;;;;;5.72;0.73;;;;;;;;;;5057430;28;20094;-80
2023/09/30 13:36:35;;;;;;;4.43;0.88;;;;;;;;;;5042316;28;20055;-80
2023/09/30 13:39:05;;;;;;;5.05;0.82;;;;;;;;;;5025343;28;20098;-80
2023/09/30 13:41:31;;;;;;;4.68;0.73;;;;;;;;;;5058260;28;20045;-80
2023/09/30 13:43:57;;;;;;;7.57;0.82;;;;;;;;;;5041783;28;20084;-80
2023/09/30 13:46:26;;;;;;;6.93;0.80;;;;;;;;;;5058506;28;20048;-80
2023/09/30 13:48:52;;;;;;;4.03;0.70;;;;;;;;;;5058171;28;20044;-80
2023/09/30 13:51:18;;;;;;;5.63;0.70;;;;;;;;;;5058153;28;20047;-80
2023/09/30 13:53:44;;;;;;;7.18;0.77;;;;;;;;;;5058092;28;20473;-81
2023/09/30 13:56:10;;;;;;;6.00;0.60;;;;;;;;;;5057879;28;20048;-81
2023/09/30 13:58:37;;;;;;;6.68;0.98;;;;;;;;;;5041428;28;20088;-80
2023/09/30 14:01:03;;;;;;;4.43;1.10;;;;;;;;;;5058707;28;20227;-81
2023/09/30 14:03:30;;;;;;;3.97;1.00;;;;;;;;;;5057894;28;20059;-80
2023/09/30 14:05:57;;;;;;;4.50;1.20;;;;;;;;;;5075501;28;20476;-80
2023/09/30 14:08:24;;;;;;;6.85;0.93;;;;;;;;;;5058145;28;20435;-80
2023/09/30 14:10:51;;;;;;;5.03;0.98;;;;;;;;;;5057966;28;20067;-80
2023/09/30 14:13:18;;;;;;;3.53;0.90;;;;;;;;;;5057704;28;20485;-80
2023/09/30 14:15:45;;;;;;;7.72;1.08;;;;;;;;;;5057550;28;20042;-80
2023/09/30 14:18:11;;;;;;;2.40;0.85;;;;;;;;;;5075326;28;20060;-80
2023/09/30 14:20:37;;;;;;;4.88;0.85;;;;;;;;;;5057388;28;20044;-80
2023/09/30 14:23:03;;;;;;;6.18;1.10;;;;;;;;;;5041100;28;20547;-80
2023/09/30 14:25:30;;;;;;;6.38;0.90;;;;;;;;;;5057488;28;20052;-80
2023/09/30 14:27:59;;;;;;;5.63;1.23;;;;;;;;;;5057738;28;20051;-80
2023/09/30 14:30:25;;;;;;;6.05;0.60;;;;;;;;;;5057394;28;20102;-80
2023/09/30 14:32:54;;;;;;;5.68;0.85;;;;;;;;;;5057297;28;20481;-80